Time;durP1;ratioP1;P1;durP2;ratioP2;P2;SDS_P1;SDS_P2;PMS_P1;PMS_P2;Temp;Humidity;BMP_temperature;BMP_pressure;BME280_temperature;BME280_humidity;BME280_pressure;Samples;Min_cycle;Max_cycle;Signal;HPM_P1;HPM_P2
2022/01/12 00:01:24;;;;;;;3.72;3.33;;;4.60;99.90;;;;;;5017809;28;20194;-66
2022/01/12 00:03:52;;;;;;;3.40;3.10;;;4.60;99.90;;;;;;5025357;28;20247;-67
2022/01/12 00:06:20;;;;;;;4.00;3.17;;;4.60;99.90;;;;;;5028963;28;20209;-66
2022/01/12 00:08:48;;;;;;;3.60;3.30;;;4.60;99.90;;;;;;5015720;28;20630;-68
2022/01/12 00:11:17;;;;;;;6.68;3.70;;;4.50;99.90;;;;;;5020540;28;20185;-66
2022/01/12 00:13:45;;;;;;;5.10;3.50;;;4.50;99.90;;;;;;5027487;28;20228;-67
2022/01/12 00:16:15;;;;;;;4.47;3.47;;;4.50;99.90;;;;;;5025638;28;20624;-68
2022/01/12 00:18:44;;;;;;;4.53;4.00;;;4.50;99.90;;;;;;5028486;28;20213;-67
2022/01/12 00:21:12;;;;;;;3.40;3.10;;;4.50;99.90;;;;;;5029384;28;20193;-67
2022/01/12 00:23:42;;;;;;;4.50;3.42;;;4.60;99.90;;;;;;5028440;28;20224;-68
2022/01/12 00:26:13;;;;;;;5.00;4.00;;;4.50;99.90;;;;;;5016764;28;20248;-66
2022/01/12 00:34:25;;;;;;;4.55;3.88;;;4.50;99.90;;;;;;5019961;28;20220;-67
2022/01/12 00:36:53;;;;;;;4.18;3.75;;;4.50;99.90;;;;;;5027996;28;20225;-68
2022/01/12 00:39:22;;;;;;;4.95;2.97;;;4.50;99.90;;;;;;5026799;28;20292;-67
2022/01/12 00:41:50;;;;;;;4.45;3.95;;;4.50;99.90;;;;;;5024036;28;20976;-68
2022/01/12 00:44:23;;;;;;;4.10;3.45;;;4.50;99.90;;;;;;5028666;28;20243;-67
2022/01/12 00:46:54;;;;;;;4.07;3.65;;;4.50;99.90;;;;;;5007381;28;20240;-68
2022/01/12 00:49:23;;;;;;;3.97;3.25;;;4.50;99.90;;;;;;5028601;28;20209;-67
2022/01/12 00:51:54;;;;;;;4.40;3.67;;;4.50;99.90;;;;;;5028082;28;20247;-67
2022/01/12 00:54:25;;;;;;;4.10;3.75;;;4.50;99.90;;;;;;5027745;28;20197;-66
2022/01/12 00:56:53;;;;;;;3.65;3.35;;;4.50;99.90;;;;;;5019947;28;20220;-67
2022/01/12 00:59:22;;;;;;;4.35;3.10;;;4.50;99.90;;;;;;5027179;28;20570;-68
2022/01/12 01:01:57;;;;;;;4.80;3.53;;;4.50;99.90;;;;;;5016914;28;20269;-67
2022/01/12 01:04:26;;;;;;;4.15;3.22;;;4.50;99.90;;;;;;5026325;28;20654;-66
2022/01/12 01:06:55;;;;;;;4.18;3.53;;;4.50;99.90;;;;;;5026731;28;20235;-68
2022/01/12 01:09:24;;;;;;;4.30;3.40;;;4.50;99.90;;;;;;5021774;28;20256;-66
2022/01/12 01:11:54;;;;;;;4.90;3.90;;;4.50;99.90;;;;;;5024209;28;20248;-68
2022/01/12 01:14:36;;;;;;;6.68;3.97;;;4.50;99.90;;;;;;5027418;28;20229;-67
2022/01/12 01:25:26;;;;;;;4.15;3.75;;;4.50;99.90;;;;;;5018202;28;20263;-68
2022/01/12 01:25:43;;;;;;;4.55;3.20;;;4.50;99.90;;;;;;5019978;28;20213;-67
2022/01/12 01:28:14;;;;;;;3.75;3.35;;;4.50;99.90;;;;;;5026395;28;20283;-67
2022/01/12 01:30:44;;;;;;;5.45;3.75;;;4.50;99.90;;;;;;5025227;28;20193;-66
2022/01/12 01:33:16;;;;;;;3.55;3.20;;;4.50;99.90;;;;;;5016873;28;20216;-67
2022/01/12 01:35:50;;;;;;;3.63;3.33;;;4.50;99.90;;;;;;5026074;28;20251;-66
2022/01/12 01:38:23;;;;;;;5.55;4.25;;;4.50;99.90;;;;;;5024415;28;20220;-66
2022/01/12 01:40:51;;;;;;;4.30;3.28;;;4.50;99.90;;;;;;5027054;28;20275;-67
2022/01/12 01:43:26;;;;;;;3.40;3.10;;;4.50;99.90;;;;;;5025849;28;20737;-68
2022/01/12 01:54:16;;;;;;;5.03;3.90;;;4.50;99.90;;;;;;5026245;28;20197;-67
2022/01/12 01:56:44;;;;;;;4.10;3.70;;;4.50;99.90;;;;;;5025155;28;20320;-67
2022/01/12 01:59:13;;;;;;;3.65;3.20;;;4.50;99.90;;;;;;5026228;28;20263;-68
2022/01/12 02:01:44;;;;;;;4.30;3.28;;;4.50;99.90;;;;;;5021412;28;20326;-68
2022/01/12 02:04:14;;;;;;;4.15;3.38;;;4.50;99.90;;;;;;5026138;28;20201;-66
2022/01/12 02:06:43;;;;;;;5.93;3.78;;;4.50;99.90;;;;;;5024571;28;20251;-68
2022/01/12 02:09:11;;;;;;;5.70;4.22;;;4.40;99.90;;;;;;5027427;28;20667;-68
2022/01/12 02:11:51;;;;;;;3.65;3.35;;;4.50;99.90;;;;;;5019193;28;20238;-67
2022/01/12 02:14:23;;;;;;;4.43;3.90;;;4.40;99.90;;;;;;5025795;28;20286;-66
2022/01/12 02:16:55;;;;;;;4.85;3.50;;;4.40;99.90;;;;;;5023617;28;20229;-67
2022/01/12 02:19:49;;;;;;;3.90;3.50;;;4.40;99.90;;;;;;5025444;28;20193;-67
2022/01/12 02:36:19;;;;;;;4.10;3.30;;;4.40;99.90;;;;;;5026802;28;20225;-68
2022/01/12 02:41:34;;;;;;;3.45;3.15;;;4.40;99.90;;;;;;5020941;28;20208;-65
2022/01/12 02:55:10;;;;;;;4.55;3.53;;;4.40;99.90;;;;;;5022527;28;20205;-67
2022/01/12 02:57:38;;;;;;;3.13;2.85;;;4.40;99.90;;;;;;5028633;28;20271;-66
2022/01/12 03:00:10;;;;;;;3.28;2.95;;;4.40;99.90;;;;;;5029864;28;20323;-66
2022/01/12 03:02:41;;;;;;;5.95;3.75;;;4.40;99.90;;;;;;5027903;28;20917;-67
2022/01/12 03:05:33;;;;;;;6.80;3.72;;;4.40;99.90;;;;;;5029894;28;20232;-67
2022/01/12 03:08:10;;;;;;;4.55;3.50;;;4.40;99.90;;;;;;5028535;28;20213;-67
2022/01/12 03:10:41;;;;;;;3.78;2.95;;;4.40;99.90;;;;;;5024492;28;20797;-67
2022/01/12 03:13:09;;;;;;;5.07;3.33;;;4.40;99.90;;;;;;5028525;28;20225;-67
2022/01/12 03:15:40;;;;;;;3.70;3.35;;;4.40;99.90;;;;;;5029243;28;20205;-67
2022/01/12 03:18:12;;;;;;;5.25;3.28;;;4.40;99.90;;;;;;5027252;28;20584;-67
2022/01/12 03:20:40;;;;;;;4.90;3.47;;;4.40;99.90;;;;;;5029267;28;20193;-67
2022/01/12 03:23:09;;;;;;;3.08;2.70;;;4.40;99.90;;;;;;5028102;28;20221;-67
2022/01/12 03:25:37;;;;;;;3.30;3.00;;;4.40;99.90;;;;;;5026403;28;20200;-67
2022/01/12 03:28:07;;;;;;;3.40;3.10;;;4.40;99.90;;;;;;5029165;28;20332;-65
2022/01/12 03:30:46;;;;;;;4.00;3.35;;;4.40;99.90;;;;;;5028654;28;20200;-66
2022/01/12 03:33:30;;;;;;;2.70;2.50;;;4.40;99.90;;;;;;5030692;28;20221;-67
2022/01/12 03:36:24;;;;;;;4.78;2.60;;;4.40;99.90;;;;;;5018810;28;20594;-68
2022/01/12 03:38:53;;;;;;;4.40;3.03;;;4.40;99.90;;;;;;5027143;28;20236;-65
2022/01/12 03:41:22;;;;;;;3.85;2.70;;;4.40;99.90;;;;;;5028599;28;20250;-68
2022/01/12 03:43:55;;;;;;;3.70;2.95;;;4.40;99.90;;;;;;5028108;28;20648;-68
2022/01/12 03:46:34;;;;;;;4.20;2.95;;;4.40;99.90;;;;;;5024232;28;20594;-67
2022/01/12 03:49:03;;;;;;;3.20;2.90;;;4.40;99.90;;;;;;5028332;28;20217;-67
2022/01/12 03:51:32;;;;;;;4.05;2.92;;;4.40;99.90;;;;;;5027819;28;20193;-68
2022/01/12 03:54:09;;;;;;;3.40;3.10;;;4.40;99.90;;;;;;5027001;28;20197;-67
2022/01/12 03:56:37;;;;;;;3.90;2.80;;;4.40;99.90;;;;;;5011353;28;20217;-66
2022/01/12 03:59:07;;;;;;;3.60;2.55;;;4.40;99.90;;;;;;5028179;28;20248;-66
2022/01/12 04:01:36;;;;;;;4.55;2.72;;;4.40;99.90;;;;;;5025459;28;20667;-68
2022/01/12 04:04:17;;;;;;;3.95;2.70;;;4.40;99.90;;;;;;5026875;28;20196;-66
2022/01/12 04:09:44;;;;;;;3.38;3.00;;;4.40;99.90;;;;;;5027426;28;20194;-67
2022/01/12 04:12:14;;;;;;;3.53;2.80;;;4.40;99.90;;;;;;5009313;28;20256;-67
2022/01/12 04:14:44;;;;;;;5.35;3.70;;;4.40;99.90;;;;;;5022303;28;20251;-68
2022/01/12 04:17:12;;;;;;;3.42;2.97;;;4.40;99.90;;;;;;5024101;28;20220;-67
2022/01/12 04:19:44;;;;;;;4.18;3.30;;;4.40;99.90;;;;;;5027902;28;20193;-68
2022/01/12 04:24:55;;;;;;;3.15;2.88;;;4.30;99.90;;;;;;5020903;28;20200;-67
2022/01/12 04:27:24;;;;;;;3.17;2.58;;;4.40;99.90;;;;;;5027366;28;20595;-66
2022/01/12 04:29:53;;;;;;;4.30;2.88;;;4.30;99.90;;;;;;5027387;28;20185;-66
2022/01/12 04:32:23;;;;;;;4.05;3.10;;;4.30;99.90;;;;;;5026574;28;20275;-67
2022/01/12 04:34:52;;;;;;;3.17;2.47;;;4.30;99.90;;;;;;5028811;28;20252;-67
2022/01/12 04:37:20;;;;;;;3.22;2.92;;;4.30;99.90;;;;;;5028324;28;20220;-67
2022/01/12 04:39:48;;;;;;;3.90;2.97;;;4.30;99.90;;;;;;5027427;28;20205;-68
2022/01/12 04:42:16;;;;;;;4.35;2.97;;;4.30;99.90;;;;;;5025902;28;20217;-67
2022/01/12 04:44:47;;;;;;;3.60;2.25;;;4.30;99.90;;;;;;5027571;28;20299;-68
2022/01/12 04:47:29;;;;;;;3.70;2.85;;;4.30;99.90;;;;;;5025422;28;20221;-68
2022/01/12 04:50:00;;;;;;;5.93;3.40;;;4.30;99.90;;;;;;5028035;28;20683;-68
2022/01/12 04:52:29;;;;;;;3.10;2.60;;;4.30;99.90;;;;;;5026521;28;20224;-68
2022/01/12 04:54:57;;;;;;;3.05;2.83;;;4.30;99.90;;;;;;5027217;28;20212;-67
2022/01/12 04:57:28;;;;;;;3.17;2.85;;;4.40;99.90;;;;;;5025193;28;20225;-68
2022/01/12 05:00:05;;;;;;;4.05;2.60;;;4.30;99.90;;;;;;5027537;28;20205;-67
2022/01/12 05:08:18;;;;;;;3.42;2.53;;;4.30;99.90;;;;;;5027185;28;20220;-67
2022/01/12 05:13:34;;;;;;;4.03;3.30;;;4.30;99.90;;;;;;5027100;28;20221;-68
2022/01/12 05:16:04;;;;;;;3.22;2.90;;;4.30;99.90;;;;;;5022995;28;20252;-68
2022/01/12 05:18:35;;;;;;;3.25;2.75;;;4.30;99.90;;;;;;5013861;28;20832;-67
2022/01/12 05:21:04;;;;;;;4.10;2.97;;;4.30;99.90;;;;;;5026536;28;20247;-67
2022/01/12 05:23:33;;;;;;;4.40;2.90;;;4.30;99.90;;;;;;5026115;28;20307;-67
2022/01/12 05:26:02;;;;;;;3.75;2.78;;;4.30;99.90;;;;;;5025727;28;20308;-68
2022/01/12 05:28:32;;;;;;;2.72;2.50;;;4.30;99.90;;;;;;5025115;28;20565;-67
2022/01/12 05:31:02;;;;;;;2.78;2.55;;;4.30;99.90;;;;;;5023684;28;20189;-66
2022/01/12 05:33:31;;;;;;;2.58;2.38;;;4.30;99.90;;;;;;5026092;28;20216;-66
2022/01/12 05:36:04;;;;;;;4.10;2.58;;;4.30;99.90;;;;;;5026281;28;20757;-68
2022/01/12 05:38:33;;;;;;;3.58;2.25;;;4.30;99.90;;;;;;5026604;28;20239;-67
2022/01/12 05:41:03;;;;;;;3.80;2.92;;;4.30;99.90;;;;;;5042881;28;20193;-67
2022/01/12 05:43:34;;;;;;;3.30;2.80;;;4.30;99.90;;;;;;5024379;28;20244;-68
2022/01/12 05:46:10;;;;;;;3.97;2.70;;;4.30;99.90;;;;;;5024423;28;20288;-69
2022/01/12 05:51:28;;;;;;;2.63;2.42;;;4.30;99.90;;;;;;5026007;28;20227;-66
2022/01/12 05:53:57;;;;;;;2.90;2.60;;;4.30;99.90;;;;;;5027058;28;20273;-66
2022/01/12 05:56:27;;;;;;;3.13;2.83;;;4.30;99.90;;;;;;5015171;28;20221;-68
2022/01/12 05:58:55;;;;;;;3.00;2.67;;;4.30;99.90;;;;;;5026733;28;20225;-66
2022/01/12 06:01:23;;;;;;;2.95;2.65;;;4.30;99.90;;;;;;5022494;28;20197;-67
2022/01/12 06:03:53;;;;;;;3.90;2.45;;;4.30;99.90;;;;;;5009701;28;20217;-67
2022/01/12 06:06:23;;;;;;;2.30;2.10;;;4.30;99.90;;;;;;5026505;28;20213;-66
2022/01/12 06:08:54;;;;;;;2.65;2.20;;;4.30;99.90;;;;;;5025757;28;20618;-67
2022/01/12 06:11:23;;;;;;;2.33;1.85;;;4.30;99.90;;;;;;5025119;28;20189;-67
2022/01/12 06:13:56;;;;;;;3.75;3.00;;;4.30;99.90;;;;;;5025683;28;20717;-67
2022/01/12 06:16:29;;;;;;;2.90;2.70;;;4.30;99.90;;;;;;5021286;28;20229;-67
2022/01/12 06:18:58;;;;;;;3.55;2.50;;;4.30;99.90;;;;;;5022787;28;20209;-68
2022/01/12 06:21:28;;;;;;;3.20;2.15;;;4.30;99.90;;;;;;5025508;28;20201;-66
2022/01/12 06:24:05;;;;;;;3.03;1.92;;;4.30;99.90;;;;;;5024905;28;20671;-66
2022/01/12 06:26:33;;;;;;;3.05;2.42;;;4.30;99.90;;;;;;5017399;28;20256;-67
2022/01/12 06:31:46;;;;;;;3.50;2.78;;;4.30;99.90;;;;;;5026930;28;20659;-66
2022/01/12 06:34:14;;;;;;;2.83;2.63;;;4.30;99.90;;;;;;5029629;28;20228;-67
2022/01/12 06:36:43;;;;;;;3.83;2.45;;;4.30;99.90;;;;;;5029203;28;20946;-68
2022/01/12 06:39:17;;;;;;;2.58;2.35;;;4.30;99.90;;;;;;5029575;28;20216;-66
2022/01/12 06:41:45;;;;;;;4.70;2.65;;;4.30;99.90;;;;;;5028232;28;20220;-67
2022/01/12 06:44:15;;;;;;;3.15;2.35;;;4.30;99.90;;;;;;5029245;28;20217;-66
2022/01/12 06:46:44;;;;;;;2.58;2.33;;;4.30;99.90;;;;;;5028179;28;20301;-67
2022/01/12 06:49:15;;;;;;;2.92;2.65;;;4.30;99.90;;;;;;5029050;28;20524;-67
2022/01/12 06:51:44;;;;;;;2.78;2.58;;;4.30;99.90;;;;;;5029171;28;20200;-67
2022/01/12 06:54:16;;;;;;;3.35;2.60;;;4.30;99.90;;;;;;5010650;28;20732;-68
2022/01/12 06:56:44;;;;;;;5.60;2.97;;;4.30;99.90;;;;;;5029968;28;20209;-67
2022/01/12 06:59:12;;;;;;;3.42;2.85;;;4.30;99.90;;;;;;5028886;28;20216;-66
2022/01/12 07:01:40;;;;;;;2.50;2.30;;;4.30;99.90;;;;;;5027863;28;20288;-66
2022/01/12 07:04:11;;;;;;;2.75;2.30;;;4.20;99.90;;;;;;5028677;28;20287;-67
2022/01/12 07:06:39;;;;;;;3.63;2.35;;;4.20;99.90;;;;;;5029050;28;20655;-67
2022/01/12 07:09:08;;;;;;;2.38;2.17;;;4.20;99.90;;;;;;5028177;28;20642;-67
2022/01/12 07:11:52;;;;;;;2.50;2.30;;;4.20;99.90;;;;;;5028942;28;20221;-67
2022/01/12 07:14:27;;;;;;;3.65;2.78;;;4.20;99.90;;;;;;5013502;28;20196;-66
2022/01/12 07:16:56;;;;;;;3.67;2.20;;;4.20;99.90;;;;;;5017281;28;20233;-67
2022/01/12 07:19:25;;;;;;;3.42;2.50;;;4.20;99.90;;;;;;5028857;28;20207;-67
2022/01/12 07:21:53;;;;;;;2.95;2.65;;;4.20;99.90;;;;;;5028369;28;20221;-67
2022/01/12 07:24:21;;;;;;;2.35;2.15;;;4.30;99.90;;;;;;5029158;28;20193;-67
2022/01/12 07:26:49;;;;;;;3.13;2.83;;;4.20;99.90;;;;;;5024816;28;20229;-67
2022/01/12 07:29:19;;;;;;;2.55;2.20;;;4.20;99.90;;;;;;5030163;28;20181;-68
2022/01/12 07:31:48;;;;;;;2.92;2.63;;;4.20;99.90;;;;;;5023882;28;20283;-67
2022/01/12 07:34:16;;;;;;;4.47;2.88;;;4.20;99.90;;;;;;5030139;28;20213;-66
2022/01/12 07:36:45;;;;;;;3.95;3.08;;;4.20;99.90;;;;;;5028727;28;20217;-69
2022/01/12 07:39:13;;;;;;;3.90;2.60;;;4.20;99.90;;;;;;5027617;28;20213;-67
2022/01/12 07:41:41;;;;;;;3.42;2.60;;;4.20;99.90;;;;;;5022110;28;20200;-68
2022/01/12 07:44:09;;;;;;;3.40;2.88;;;4.20;99.90;;;;;;5029042;28;20201;-67
2022/01/12 07:46:39;;;;;;;4.78;2.45;;;4.20;99.90;;;;;;5024259;28;20213;-68
2022/01/12 07:49:07;;;;;;;2.80;2.35;;;4.20;99.90;;;;;;5029778;28;20647;-69
2022/01/12 07:51:35;;;;;;;3.88;3.58;;;4.20;99.90;;;;;;5029707;28;20197;-67
2022/01/12 07:54:03;;;;;;;3.78;2.65;;;4.20;99.90;;;;;;5023079;28;20584;-67
2022/01/12 07:56:31;;;;;;;2.80;2.38;;;4.20;99.90;;;;;;5009927;28;20649;-67
2022/01/12 07:58:59;;;;;;;3.50;2.42;;;4.20;99.90;;;;;;5018427;28;20239;-66
2022/01/12 08:01:27;;;;;;;2.53;2.13;;;4.20;99.90;;;;;;5026439;28;20232;-68
2022/01/12 08:03:57;;;;;;;3.60;2.95;;;4.20;99.90;;;;;;5029866;28;20276;-69
2022/01/12 08:06:25;;;;;;;2.45;2.15;;;4.20;99.90;;;;;;5028119;28;20710;-67
2022/01/12 08:08:53;;;;;;;3.47;2.88;;;4.20;99.90;;;;;;5028095;28;20219;-68
2022/01/12 08:11:21;;;;;;;2.40;2.13;;;4.20;99.90;;;;;;5025265;28;20611;-67
2022/01/12 08:13:50;;;;;;;3.30;2.60;;;4.20;99.90;;;;;;5029289;28;20645;-69
2022/01/12 08:16:18;;;;;;;2.45;2.25;;;4.20;99.90;;;;;;5025677;28;20217;-66
2022/01/12 08:18:46;;;;;;;2.50;2.30;;;4.20;99.90;;;;;;5030068;28;20245;-67
2022/01/12 08:21:16;;;;;;;2.63;2.42;;;4.20;99.90;;;;;;5029061;28;20549;-68
2022/01/12 08:23:44;;;;;;;3.83;2.50;;;4.20;99.90;;;;;;5024807;28;20291;-67
2022/01/12 08:26:13;;;;;;;3.08;2.30;;;4.20;99.90;;;;;;5026783;28;20201;-67
2022/01/12 08:28:41;;;;;;;3.00;2.70;;;4.20;99.90;;;;;;5026773;28;20733;-68
2022/01/12 08:31:10;;;;;;;2.45;1.58;;;4.20;99.90;;;;;;5026141;28;20576;-68
2022/01/12 08:33:38;;;;;;;2.80;2.15;;;4.20;99.90;;;;;;5027976;28;20617;-67
2022/01/12 08:36:06;;;;;;;2.28;2.03;;;4.20;99.90;;;;;;5028352;28;20248;-67
2022/01/12 08:38:35;;;;;;;2.90;2.15;;;4.20;99.90;;;;;;5028573;28;20257;-66
2022/01/12 08:41:03;;;;;;;3.22;2.88;;;4.20;99.90;;;;;;5028343;28;20259;-67
2022/01/12 08:43:31;;;;;;;2.53;2.25;;;4.20;99.90;;;;;;5028385;28;20248;-67
2022/01/12 08:46:00;;;;;;;3.28;2.50;;;4.20;99.90;;;;;;5025809;28;20557;-68
2022/01/12 08:48:28;;;;;;;2.38;2.10;;;4.20;99.90;;;;;;5012459;28;21499;-68
2022/01/12 08:50:56;;;;;;;3.13;2.83;;;4.20;99.90;;;;;;5028830;28;20193;-67
2022/01/12 08:53:24;;;;;;;2.90;2.38;;;4.20;99.90;;;;;;5028006;28;20678;-67
2022/01/12 08:55:56;;;;;;;3.00;2.45;;;4.20;99.90;;;;;;5024139;28;20348;-68
2022/01/12 08:58:24;;;;;;;3.13;1.75;;;4.20;99.90;;;;;;5027890;28;20282;-65
2022/01/12 09:00:52;;;;;;;3.42;2.92;;;4.20;99.90;;;;;;5025892;28;20320;-67
2022/01/12 09:03:23;;;;;;;2.55;2.35;;;4.20;99.90;;;;;;5027078;28;20658;-68
2022/01/12 09:05:51;;;;;;;3.15;2.80;;;4.20;99.90;;;;;;5028257;28;20575;-70
2022/01/12 09:08:19;;;;;;;3.92;2.42;;;4.20;99.90;;;;;;5027969;28;20216;-68
2022/01/12 09:10:47;;;;;;;2.30;2.10;;;4.20;99.90;;;;;;5027572;28;20196;-69
2022/01/12 09:13:19;;;;;;;2.45;2.25;;;4.20;99.90;;;;;;5027585;28;20221;-67
2022/01/12 09:15:47;;;;;;;2.80;2.45;;;4.20;99.90;;;;;;5026663;28;20220;-66
2022/01/12 09:18:18;;;;;;;2.60;2.20;;;4.20;99.90;;;;;;5008344;28;20748;-68
2022/01/12 09:20:46;;;;;;;3.33;2.38;;;4.20;99.90;;;;;;5017795;28;20209;-67
2022/01/12 09:23:15;;;;;;;3.60;2.58;;;4.20;99.90;;;;;;5027976;28;20235;-65
2022/01/12 09:25:43;;;;;;;2.97;2.60;;;4.20;99.90;;;;;;5026188;28;20283;-66
2022/01/12 09:28:11;;;;;;;2.60;2.30;;;4.20;99.90;;;;;;5025360;28;20645;-68
2022/01/12 09:30:41;;;;;;;3.50;2.50;;;4.20;99.90;;;;;;5027916;28;20591;-68
2022/01/12 09:33:09;;;;;;;2.65;2.45;;;4.20;99.90;;;;;;5025754;28;20232;-67
2022/01/12 09:35:38;;;;;;;2.63;2.28;;;4.20;99.90;;;;;;5028284;28;20262;-66
2022/01/12 09:38:06;;;;;;;2.50;2.30;;;4.20;99.90;;;;;;5027372;28;20232;-66
2022/01/12 09:40:34;;;;;;;3.60;3.30;;;4.20;99.90;;;;;;5021709;28;20698;-67
2022/01/12 09:43:04;;;;;;;2.55;2.25;;;4.20;99.90;;;;;;5027290;28;20267;-66
2022/01/12 09:45:33;;;;;;;2.85;2.60;;;4.20;99.90;;;;;;5026738;28;20204;-67
2022/01/12 09:48:02;;;;;;;3.20;2.92;;;4.20;99.90;;;;;;5024487;28;20220;-66
2022/01/12 09:50:32;;;;;;;2.80;2.30;;;4.20;99.90;;;;;;5028191;28;20529;-67
2022/01/12 09:53:00;;;;;;;3.28;2.25;;;4.20;99.90;;;;;;5025986;28;20565;-67
2022/01/12 09:55:28;;;;;;;3.65;2.70;;;4.20;99.90;;;;;;5018726;28;20280;-67
2022/01/12 09:57:56;;;;;;;2.55;2.35;;;4.20;99.90;;;;;;5027613;28;20312;-69
2022/01/12 10:00:27;;;;;;;2.25;2.05;;;4.20;99.90;;;;;;5026951;28;20233;-67
2022/01/12 10:02:56;;;;;;;3.50;2.63;;;4.20;99.90;;;;;;5016621;28;20244;-66
2022/01/12 10:05:32;;;;;;;2.67;2.47;;;4.20;99.90;;;;;;5027890;28;20209;-67
2022/01/12 10:08:11;;;;;;;2.45;2.05;;;4.20;99.90;;;;;;5025539;28;20220;-66
2022/01/12 10:10:40;;;;;;;2.95;2.25;;;4.20;99.90;;;;;;5021556;28;20311;-68
2022/01/12 10:13:22;;;;;;;2.80;1.80;;;4.20;99.90;;;;;;5026343;28;20208;-67
2022/01/12 10:15:52;;;;;;;2.25;2.05;;;4.20;99.90;;;;;;5012645;28;20574;-67
2022/01/12 10:18:22;;;;;;;2.97;2.42;;;4.20;99.90;;;;;;5023186;28;20224;-65
2022/01/12 10:20:52;;;;;;;2.05;1.85;;;4.20;99.90;;;;;;5023050;28;20692;-66
2022/01/12 10:23:23;;;;;;;4.47;2.53;;;4.20;99.90;;;;;;5022408;28;20615;-67
2022/01/12 10:25:52;;;;;;;2.97;2.03;;;4.20;99.90;;;;;;5025399;28;20247;-66
2022/01/12 10:28:25;;;;;;;2.33;2.10;;;4.20;99.90;;;;;;5026223;28;20229;-68
2022/01/12 10:30:56;;;;;;;3.95;2.78;;;4.20;99.90;;;;;;5025198;28;20197;-67
2022/01/12 10:33:26;;;;;;;2.17;1.98;;;4.10;99.90;;;;;;5007615;28;20308;-66
2022/01/12 10:35:58;;;;;;;2.30;2.10;;;4.20;99.90;;;;;;5007941;28;20249;-67
2022/01/12 10:38:26;;;;;;;2.42;2.17;;;4.20;99.90;;;;;;5026208;28;20221;-68
2022/01/12 10:40:57;;;;;;;3.00;2.50;;;4.20;99.90;;;;;;5025019;28;20674;-67
2022/01/12 10:43:30;;;;;;;2.40;2.20;;;4.20;99.90;;;;;;5026395;28;20725;-66
2022/01/12 10:45:59;;;;;;;3.45;2.35;;;4.20;99.90;;;;;;5023936;28;20240;-66
2022/01/12 10:48:38;;;;;;;2.58;2.33;;;4.20;99.90;;;;;;5015612;28;20217;-68
2022/01/12 10:51:08;;;;;;;3.42;2.67;;;4.20;99.90;;;;;;5026558;28;20613;-67
2022/01/12 10:53:37;;;;;;;3.03;2.08;;;4.20;99.90;;;;;;5026467;28;20231;-68
2022/01/12 10:56:08;;;;;;;2.78;2.40;;;4.20;99.90;;;;;;5020265;28;20304;-67
2022/01/12 10:58:40;;;;;;;3.97;2.25;;;4.20;99.90;;;;;;5026922;28;20590;-67
2022/01/12 11:01:09;;;;;;;2.50;2.10;;;4.20;99.90;;;;;;5022867;28;20615;-67
2022/01/12 11:03:38;;;;;;;2.83;2.33;;;4.20;99.90;;;;;;5022219;28;20219;-67
2022/01/12 11:06:08;;;;;;;2.50;2.30;;;4.20;99.90;;;;;;5026774;28;20217;-67
2022/01/12 11:08:38;;;;;;;5.78;2.15;;;4.20;99.90;;;;;;5025395;28;20217;-67
2022/01/12 11:11:07;;;;;;;5.50;3.30;;;4.20;99.90;;;;;;5021626;28;20653;-66
2022/01/12 11:13:36;;;;;;;2.90;2.47;;;4.20;99.90;;;;;;5027418;28;20286;-67
2022/01/12 11:16:04;;;;;;;3.92;3.40;;;4.20;99.90;;;;;;5026063;28;20715;-66
2022/01/12 11:18:35;;;;;;;3.10;2.67;;;4.10;99.90;;;;;;5026384;28;20232;-67
2022/01/12 11:21:14;;;;;;;2.95;2.58;;;4.20;99.90;;;;;;5029887;28;20191;-66
2022/01/12 11:23:44;;;;;;;4.40;3.10;;;4.10;99.90;;;;;;5030089;28;20225;-67
2022/01/12 11:26:14;;;;;;;4.25;3.67;;;4.10;99.90;;;;;;5028862;28;20304;-67
2022/01/12 11:28:44;;;;;;;3.10;2.13;;;4.10;99.90;;;;;;5029399;28;20793;-68
2022/01/12 11:31:13;;;;;;;2.55;2.35;;;4.20;99.90;;;;;;5025122;28;20229;-66
2022/01/12 11:33:43;;;;;;;2.90;1.95;;;4.10;99.90;;;;;;5026216;28;20296;-66
2022/01/12 11:36:19;;;;;;;2.92;2.65;;;4.10;99.90;;;;;;5029824;28;20583;-67
2022/01/12 11:38:50;;;;;;;4.38;2.80;;;4.10;99.90;;;;;;5029397;28;20213;-67
2022/01/12 11:41:22;;;;;;;3.35;3.05;;;4.20;99.90;;;;;;5028906;28;20267;-66
2022/01/12 11:43:53;;;;;;;4.38;3.10;;;4.10;99.90;;;;;;5029640;28;20734;-66
2022/01/12 11:46:22;;;;;;;3.38;2.88;;;4.20;99.90;;;;;;5028557;28;20683;-68
2022/01/12 11:48:53;;;;;;;2.65;2.22;;;4.20;99.90;;;;;;5029534;28;20308;-67
2022/01/12 11:51:33;;;;;;;2.25;2.03;;;4.20;99.90;;;;;;5029370;28;20247;-66
2022/01/12 11:54:09;;;;;;;3.05;2.60;;;4.20;99.90;;;;;;5027133;28;20213;-65
2022/01/12 11:56:38;;;;;;;3.58;2.50;;;4.20;99.90;;;;;;5018519;28;20619;-67
2022/01/12 11:59:11;;;;;;;3.17;2.70;;;4.20;99.90;;;;;;5030104;28;20211;-67
2022/01/12 12:01:43;;;;;;;3.10;2.78;;;4.20;99.90;;;;;;5020571;28;20237;-66
2022/01/12 12:04:23;;;;;;;3.40;2.63;;;4.10;99.90;;;;;;5010104;28;20288;-67
2022/01/12 12:07:05;;;;;;;4.20;2.75;;;4.20;99.90;;;;;;5009803;28;20221;-66
2022/01/12 12:09:41;;;;;;;2.53;2.33;;;4.20;99.90;;;;;;5009831;28;20209;-67
2022/01/12 12:12:15;;;;;;;2.80;2.55;;;4.20;99.90;;;;;;5013693;28;20239;-66
2022/01/12 12:14:47;;;;;;;5.30;2.95;;;4.20;99.90;;;;;;5029355;28;20204;-67
2022/01/12 12:17:17;;;;;;;4.10;2.70;;;4.20;99.90;;;;;;5015836;28;20226;-66
2022/01/12 12:19:47;;;;;;;3.15;2.63;;;4.20;99.90;;;;;;5012166;28;20673;-68
2022/01/12 12:22:19;;;;;;;3.42;2.70;;;4.20;99.90;;;;;;5028551;28;20495;-67
2022/01/12 12:24:53;;;;;;;2.42;2.20;;;4.20;99.90;;;;;;5027859;28;20203;-70
2022/01/12 12:27:24;;;;;;;5.22;3.25;;;4.10;99.90;;;;;;5027423;28;20267;-67
2022/01/12 12:29:52;;;;;;;3.08;2.72;;;4.20;99.90;;;;;;5028507;28;20263;-66
2022/01/12 12:32:32;;;;;;;3.90;2.83;;;4.10;99.90;;;;;;5027431;28;20256;-67
2022/01/12 12:35:02;;;;;;;3.60;2.88;;;4.20;99.90;;;;;;5028080;28;20899;-65
2022/01/12 12:37:38;;;;;;;3.30;2.65;;;4.10;99.90;;;;;;5028881;28;20620;-68
2022/01/12 12:40:22;;;;;;;3.85;2.75;;;4.10;99.90;;;;;;5024080;28;20554;-66
2022/01/12 12:43:00;;;;;;;4.53;3.00;;;4.10;99.90;;;;;;5028193;28;20298;-66
2022/01/12 12:45:39;;;;;;;3.55;2.60;;;4.10;99.90;;;;;;5028209;28;20682;-67
2022/01/12 12:48:08;;;;;;;3.15;2.80;;;4.10;99.90;;;;;;5027422;28;20691;-68
2022/01/12 12:50:37;;;;;;;4.25;2.72;;;4.10;99.90;;;;;;5028418;28;20185;-66
2022/01/12 12:53:12;;;;;;;4.05;2.75;;;4.20;99.90;;;;;;5027372;28;20237;-67
2022/01/12 12:55:43;;;;;;;3.70;2.75;;;4.20;99.90;;;;;;5025630;28;20623;-68
2022/01/12 12:58:15;;;;;;;3.67;2.67;;;4.20;99.90;;;;;;5028125;28;20726;-68
2022/01/12 13:00:44;;;;;;;3.55;2.67;;;4.10;99.90;;;;;;5025593;28;20189;-66
2022/01/12 13:03:12;;;;;;;4.95;3.25;;;4.10;99.90;;;;;;5024487;28;20278;-66
2022/01/12 13:05:42;;;;;;;3.40;3.00;;;4.10;99.90;;;;;;5027621;28;20193;-68
2022/01/12 13:08:12;;;;;;;4.13;3.10;;;4.10;99.90;;;;;;5028198;28;20263;-68
2022/01/12 13:10:40;;;;;;;5.18;3.28;;;4.10;99.90;;;;;;5020400;28;20201;-66
2022/01/12 13:13:13;;;;;;;5.35;3.83;;;4.10;99.90;;;;;;5027480;28;20267;-68
2022/01/12 13:15:43;;;;;;;5.00;3.33;;;4.10;99.90;;;;;;5026702;28;20205;-66
2022/01/12 13:18:15;;;;;;;5.55;3.72;;;4.20;99.90;;;;;;5021181;28;20225;-66
2022/01/12 13:23:37;;;;;;;4.45;2.95;;;4.10;99.90;;;;;;5015690;28;20291;-67
2022/01/12 13:26:06;;;;;;;3.00;2.70;;;4.10;99.90;;;;;;5022022;28;20233;-67
2022/01/12 13:28:36;;;;;;;6.45;3.70;;;4.10;99.90;;;;;;5027482;28;20576;-68
2022/01/12 13:31:06;;;;;;;4.68;3.20;;;4.10;99.90;;;;;;5023259;28;20224;-67
2022/01/12 13:33:36;;;;;;;4.35;3.53;;;4.10;99.90;;;;;;5012080;28;20271;-67
2022/01/12 13:36:14;;;;;;;5.15;3.47;;;4.10;99.90;;;;;;5013851;28;20749;-66
2022/01/12 13:38:54;;;;;;;5.05;3.08;;;4.10;99.90;;;;;;5024837;28;20656;-66
2022/01/12 13:41:27;;;;;;;7.07;4.72;;;4.10;99.90;;;;;;5021000;28;20576;-66
2022/01/12 13:43:57;;;;;;;5.22;3.35;;;4.10;99.90;;;;;;5027124;28;20228;-68
2022/01/12 13:46:34;;;;;;;5.53;3.90;;;4.20;99.90;;;;;;5026421;28;20287;-66
2022/01/12 13:49:22;;;;;;;5.43;3.53;;;4.20;99.90;;;;;;5026398;28;20471;-67
2022/01/12 13:51:57;;;;;;;6.00;3.80;;;4.10;99.90;;;;;;5025710;28;21243;-67
2022/01/12 13:54:35;;;;;;;7.00;4.70;;;4.20;99.90;;;;;;5027233;28;20193;-67
2022/01/12 13:57:05;;;;;;;7.60;4.15;;;4.20;99.90;;;;;;5025567;28;20634;-67
2022/01/12 13:59:44;;;;;;;6.05;4.28;;;4.20;99.90;;;;;;5027892;28;20205;-66
2022/01/12 14:02:14;;;;;;;3.97;3.13;;;4.10;99.90;;;;;;5019456;28;20294;-67
2022/01/12 14:04:54;;;;;;;4.80;4.05;;;4.20;99.90;;;;;;5027235;28;20284;-68
2022/01/12 14:07:23;;;;;;;5.25;3.90;;;4.20;99.90;;;;;;5025607;28;20650;-68
2022/01/12 14:09:55;;;;;;;7.07;4.38;;;4.20;99.90;;;;;;5025062;28;20197;-68
2022/01/12 14:12:27;;;;;;;6.07;4.13;;;4.10;99.90;;;;;;5026706;28;20714;-67
2022/01/12 14:14:57;;;;;;;3.55;3.15;;;4.10;99.90;;;;;;5027288;28;20611;-67
2022/01/12 14:17:28;;;;;;;6.10;3.72;;;4.20;99.90;;;;;;5019686;28;20737;-65
2022/01/12 14:19:58;;;;;;;6.25;4.18;;;4.20;99.90;;;;;;5027378;28;20193;-68
2022/01/12 14:22:29;;;;;;;5.18;3.70;;;4.10;99.90;;;;;;5027176;28;20244;-67
2022/01/12 14:25:01;;;;;;;5.30;3.45;;;4.20;99.90;;;;;;5029152;28;20335;-67
2022/01/12 14:27:40;;;;;;;5.38;4.10;;;4.20;99.90;;;;;;5015567;28;20302;-67